CLL weather

Easterwood Field
College Station, Texas, United States

Public forecast

Using degrees Fahrenheit for public forecast. Weather courtesy of forecast.io.

Current aviation weather report (METAR) for Easterwood Field

Retrieved 2019/10/21 05:53 UTC (59 minutes ago):

KCLL 210553Z AUTO 18011G18KT 10SM BKN018 OVC025 28/24 A2970 RMK AO2 SLP050 60000 T02780239 10300 20278 403440178 58008

Aviation forecast (TAF) for Easterwood Field

Retrieved 2019/10/21 06:22 UTC (30 minutes ago):

TAF KCLL 210520Z 2106/2206 18014G21KT P6SM BKN018 BKN025 FM210900 20011KT P6SM VCSH SCT025 BKN250 TEMPO 2109/2112 36025KT TSRA BKN019CB FM211200 36010G20KT P6SM SHRA VCTS BKN015CB FM211400 35013KT P6SM BKN100 FM211600 35010KT P6SM SCT250 FM212000 36009KT P6SM SKC